sensor_id;sensor_type;location;lat;lon;timestamp;pressure;altitude;pressure_sealevel;temperature;humidity
47080;BME280;33067;49.296;14.470;2023-03-01T00:01:22;97965.26;;;1.12;39.01
47080;BME280;33067;49.296;14.470;2023-03-01T00:03:44;97968.91;;;1.19;38.91
47080;BME280;33067;49.296;14.470;2023-03-01T00:06:09;97973.99;;;1.77;39.11
47080;BME280;33067;49.296;14.470;2023-03-01T00:08:35;97974.36;;;2.20;38.67
47080;BME280;33067;49.296;14.470;2023-03-01T00:11:03;97969.85;;;2.08;38.02
47080;BME280;33067;49.296;14.470;2023-03-01T00:13:25;97967.82;;;2.04;37.88
47080;BME280;33067;49.296;14.470;2023-03-01T00:15:50;97967.15;;;2.10;37.75
47080;BME280;33067;49.296;14.470;2023-03-01T00:18:16;97969.86;;;1.82;38.09
47080;BME280;33067;49.296;14.470;2023-03-01T00:20:49;97967.70;;;2.23;38.05
47080;BME280;33067;49.296;14.470;2023-03-01T00:23:07;97965.99;;;2.33;37.94
47080;BME280;33067;49.296;14.470;2023-03-01T00:25:33;97963.04;;;2.56;37.46
47080;BME280;33067;49.296;14.470;2023-03-01T00:27:58;97961.31;;;2.51;38.17
47080;BME280;33067;49.296;14.470;2023-03-01T00:30:24;97957.50;;;2.10;37.98
47080;BME280;33067;49.296;14.470;2023-03-01T00:32:49;97959.20;;;1.64;38.26
47080;BME280;33067;49.296;14.470;2023-03-01T00:35:14;97960.56;;;1.90;38.17
47080;BME280;33067;49.296;14.470;2023-03-01T00:37:39;97959.51;;;2.14;38.47
47080;BME280;33067;49.296;14.470;2023-03-01T00:40:06;97960.53;;;2.46;38.24
47080;BME280;33067;49.296;14.470;2023-03-01T00:42:30;97961.91;;;2.54;38.22
47080;BME280;33067;49.296;14.470;2023-03-01T00:44:56;97958.20;;;2.63;38.06
47080;BME280;33067;49.296;14.470;2023-03-01T00:47:21;97956.41;;;1.56;38.58
47080;BME280;33067;49.296;14.470;2023-03-01T00:49:46;97956.13;;;1.13;39.60
47080;BME280;33067;49.296;14.470;2023-03-01T00:52:11;97954.47;;;0.87;40.26
47080;BME280;33067;49.296;14.470;2023-03-01T00:54:37;97956.03;;;0.62;40.85
47080;BME280;33067;49.296;14.470;2023-03-01T00:57:02;97954.20;;;0.46;41.16
47080;BME280;33067;49.296;14.470;2023-03-01T00:59:27;97945.75;;;0.99;40.33
47080;BME280;33067;49.296;14.470;2023-03-01T01:01:52;97942.79;;;1.13;39.95
47080;BME280;33067;49.296;14.470;2023-03-01T01:04:18;97936.26;;;1.48;39.54
47080;BME280;33067;49.296;14.470;2023-03-01T01:06:44;97931.91;;;1.61;39.44
47080;BME280;33067;49.296;14.470;2023-03-01T01:09:10;97927.34;;;1.90;39.01
47080;BME280;33067;49.296;14.470;2023-03-01T01:11:35;97922.59;;;1.83;38.80
47080;BME280;33067;49.296;14.470;2023-03-01T01:14:00;97921.01;;;2.04;38.70
47080;BME280;33067;49.296;14.470;2023-03-01T01:16:27;97921.91;;;1.76;38.55
47080;BME280;33067;49.296;14.470;2023-03-01T01:18:51;97921.38;;;1.84;38.39
47080;BME280;33067;49.296;14.470;2023-03-01T01:21:19;97920.66;;;1.85;38.44
47080;BME280;33067;49.296;14.470;2023-03-01T01:23:44;97913.17;;;1.76;38.50
47080;BME280;33067;49.296;14.470;2023-03-01T01:26:10;97906.40;;;1.91;38.83
47080;BME280;33067;49.296;14.470;2023-03-01T01:28:33;97902.74;;;1.53;38.91
47080;BME280;33067;49.296;14.470;2023-03-01T01:30:58;97904.22;;;1.30;39.52
47080;BME280;33067;49.296;14.470;2023-03-01T01:33:24;97901.47;;;1.14;39.72
47080;BME280;33067;49.296;14.470;2023-03-01T01:35:49;97904.02;;;0.77;40.30
47080;BME280;33067;49.296;14.470;2023-03-01T01:38:15;97909.41;;;0.90;40.19
47080;BME280;33067;49.296;14.470;2023-03-01T01:40:43;97905.04;;;1.33;39.81
47080;BME280;33067;49.296;14.470;2023-03-01T01:43:11;97907.62;;;1.45;39.66
47080;BME280;33067;49.296;14.470;2023-03-01T01:45:34;97907.43;;;1.83;39.11
47080;BME280;33067;49.296;14.470;2023-03-01T01:47:59;97904.19;;;1.53;38.77
47080;BME280;33067;49.296;14.470;2023-03-01T01:50:22;97904.54;;;1.78;38.63
47080;BME280;33067;49.296;14.470;2023-03-01T01:52:48;97902.17;;;0.76;39.29
47080;BME280;33067;49.296;14.470;2023-03-01T01:55:16;97899.46;;;1.42;39.11
47080;BME280;33067;49.296;14.470;2023-03-01T01:57:40;97896.97;;;1.58;39.31
47080;BME280;33067;49.296;14.470;2023-03-01T02:00:08;97892.78;;;1.68;38.85
47080;BME280;33067;49.296;14.470;2023-03-01T02:02:29;97892.17;;;1.52;39.02
47080;BME280;33067;49.296;14.470;2023-03-01T02:05:01;97894.48;;;2.05;38.74
47080;BME280;33067;49.296;14.470;2023-03-01T02:07:22;97891.82;;;1.91;38.73
47080;BME280;33067;49.296;14.470;2023-03-01T02:09:47;97889.24;;;1.79;38.78
47080;BME280;33067;49.296;14.470;2023-03-01T02:12:13;97886.42;;;2.26;38.26
47080;BME280;33067;49.296;14.470;2023-03-01T02:14:36;97881.83;;;2.24;38.40
47080;BME280;33067;49.296;14.470;2023-03-01T02:17:01;97879.84;;;2.16;38.53
47080;BME280;33067;49.296;14.470;2023-03-01T02:19:39;97879.43;;;1.87;38.74
47080;BME280;33067;49.296;14.470;2023-03-01T02:22:00;97878.69;;;1.48;38.74
47080;BME280;33067;49.296;14.470;2023-03-01T02:24:24;97876.22;;;1.78;38.80
47080;BME280;33067;49.296;14.470;2023-03-01T02:26:47;97878.23;;;1.35;39.44
47080;BME280;33067;49.296;14.470;2023-03-01T02:29:08;97878.17;;;1.48;39.43
47080;BME280;33067;49.296;14.470;2023-03-01T02:31:34;97881.71;;;1.46;39.13
47080;BME280;33067;49.296;14.470;2023-03-01T02:34:00;97882.25;;;1.59;39.04
47080;BME280;33067;49.296;14.470;2023-03-01T02:36:28;97881.70;;;1.55;38.83
47080;BME280;33067;49.296;14.470;2023-03-01T02:38:54;97882.88;;;1.24;39.49
47080;BME280;33067;49.296;14.470;2023-03-01T02:41:17;97885.26;;;0.94;40.05
47080;BME280;33067;49.296;14.470;2023-03-01T02:43:42;97882.87;;;1.14;39.78
47080;BME280;33067;49.296;14.470;2023-03-01T02:46:13;97882.99;;;0.96;39.89
47080;BME280;33067;49.296;14.470;2023-03-01T02:48:41;97879.78;;;0.97;39.78
47080;BME280;33067;49.296;14.470;2023-03-01T02:51:04;97885.59;;;0.77;39.83
47080;BME280;33067;49.296;14.470;2023-03-01T02:53:28;97888.57;;;0.28;40.58
47080;BME280;33067;49.296;14.470;2023-03-01T02:55:50;97890.23;;;0.25;40.68
47080;BME280;33067;49.296;14.470;2023-03-01T02:58:15;97891.31;;;0.57;40.68
47080;BME280;33067;49.296;14.470;2023-03-01T03:00:42;97893.33;;;0.20;40.71
47080;BME280;33067;49.296;14.470;2023-03-01T03:03:07;97893.39;;;0.06;40.88
47080;BME280;33067;49.296;14.470;2023-03-01T03:05:32;97892.16;;;0.49;40.66
47080;BME280;33067;49.296;14.470;2023-03-01T03:07:59;97890.55;;;0.86;40.16
47080;BME280;33067;49.296;14.470;2023-03-01T03:13:02;97886.60;;;1.21;38.56
47080;BME280;33067;49.296;14.470;2023-03-01T03:15:27;97888.62;;;1.80;38.49
47080;BME280;33067;49.296;14.470;2023-03-01T03:17:53;97894.76;;;1.64;38.37
47080;BME280;33067;49.296;14.470;2023-03-01T03:20:19;97890.75;;;1.53;38.63
47080;BME280;33067;49.296;14.470;2023-03-01T03:22:42;97891.70;;;1.31;38.78
47080;BME280;33067;49.296;14.470;2023-03-01T03:25:08;97883.85;;;1.86;38.38
47080;BME280;33067;49.296;14.470;2023-03-01T03:27:34;97883.52;;;1.10;38.64
47080;BME280;33067;49.296;14.470;2023-03-01T03:29:59;97881.38;;;0.96;38.85
47080;BME280;33067;49.296;14.470;2023-03-01T03:32:25;97880.39;;;1.10;39.05
47080;BME280;33067;49.296;14.470;2023-03-01T03:34:50;97878.13;;;1.54;38.88
47080;BME280;33067;49.296;14.470;2023-03-01T03:37:16;97876.92;;;1.11;39.13
47080;BME280;33067;49.296;14.470;2023-03-01T03:39:41;97873.49;;;1.28;39.21
47080;BME280;33067;49.296;14.470;2023-03-01T03:42:07;97874.93;;;1.42;39.02
47080;BME280;33067;49.296;14.470;2023-03-01T03:44:33;97875.06;;;1.05;39.06
47080;BME280;33067;49.296;14.470;2023-03-01T03:46:58;97874.61;;;1.58;38.69
47080;BME280;33067;49.296;14.470;2023-03-01T03:49:24;97871.76;;;1.38;38.79
47080;BME280;33067;49.296;14.470;2023-03-01T03:51:49;97867.82;;;1.57;38.87
47080;BME280;33067;49.296;14.470;2023-03-01T03:54:15;97867.92;;;1.17;39.01
47080;BME280;33067;49.296;14.470;2023-03-01T03:56:40;97874.06;;;1.22;39.14
47080;BME280;33067;49.296;14.470;2023-03-01T03:59:05;97874.13;;;1.28;39.03
47080;BME280;33067;49.296;14.470;2023-03-01T04:01:30;97874.52;;;1.10;39.25
47080;BME280;33067;49.296;14.470;2023-03-01T04:03:55;97877.14;;;1.59;38.95
47080;BME280;33067;49.296;14.470;2023-03-01T04:06:21;97877.11;;;1.55;38.69
47080;BME280;33067;49.296;14.470;2023-03-01T04:08:46;97875.25;;;1.74;38.37
47080;BME280;33067;49.296;14.470;2023-03-01T04:11:12;97876.54;;;1.88;38.08
47080;BME280;33067;49.296;14.470;2023-03-01T04:13:37;97874.21;;;1.96;37.91
47080;BME280;33067;49.296;14.470;2023-03-01T04:16:03;97875.36;;;1.37;38.49
47080;BME280;33067;49.296;14.470;2023-03-01T04:18:28;97872.73;;;1.63;38.44
47080;BME280;33067;49.296;14.470;2023-03-01T04:20:53;97870.73;;;1.90;38.07
47080;BME280;33067;49.296;14.470;2023-03-01T04:23:20;97868.00;;;1.86;38.15
47080;BME280;33067;49.296;14.470;2023-03-01T04:25:47;97863.67;;;1.94;38.04
47080;BME280;33067;49.296;14.470;2023-03-01T04:28:10;97860.59;;;2.01;37.92
47080;BME280;33067;49.296;14.470;2023-03-01T04:30:36;97858.78;;;2.01;37.96
47080;BME280;33067;49.296;14.470;2023-03-01T04:33:03;97860.79;;;2.09;37.76
47080;BME280;33067;49.296;14.470;2023-03-01T04:35:26;97859.76;;;1.59;37.86
47080;BME280;33067;49.296;14.470;2023-03-01T04:37:51;97860.35;;;2.18;37.71
47080;BME280;33067;49.296;14.470;2023-03-01T04:40:17;97859.01;;;1.88;37.85
47080;BME280;33067;49.296;14.470;2023-03-01T04:42:43;97856.75;;;1.76;38.12
47080;BME280;33067;49.296;14.470;2023-03-01T04:45:10;97850.56;;;1.54;38.36
47080;BME280;33067;49.296;14.470;2023-03-01T04:47:34;97852.71;;;1.17;39.01
47080;BME280;33067;49.296;14.470;2023-03-01T04:50:00;97852.88;;;0.87;39.16
47080;BME280;33067;49.296;14.470;2023-03-01T04:52:26;97853.25;;;1.18;38.80
47080;BME280;33067;49.296;14.470;2023-03-01T04:54:51;97854.23;;;1.21;38.82
47080;BME280;33067;49.296;14.470;2023-03-01T04:57:16;97852.43;;;1.11;38.84
47080;BME280;33067;49.296;14.470;2023-03-01T04:59:41;97848.68;;;1.51;38.83
47080;BME280;33067;49.296;14.470;2023-03-01T05:02:07;97846.51;;;1.34;38.53
47080;BME280;33067;49.296;14.470;2023-03-01T05:04:32;97853.01;;;0.00;40.08
47080;BME280;33067;49.296;14.470;2023-03-01T05:06:58;97860.04;;;-0.31;40.58
47080;BME280;33067;49.296;14.470;2023-03-01T05:09:24;97864.94;;;-0.79;42.05
47080;BME280;33067;49.296;14.470;2023-03-01T05:11:49;97865.14;;;-0.72;42.25
47080;BME280;33067;49.296;14.470;2023-03-01T05:14:14;97867.11;;;-0.58;42.03
47080;BME280;33067;49.296;14.470;2023-03-01T05:16:40;97864.16;;;-0.35;41.65
47080;BME280;33067;49.296;14.470;2023-03-01T05:19:05;97859.35;;;-0.53;42.03
47080;BME280;33067;49.296;14.470;2023-03-01T05:21:31;97857.61;;;-0.81;42.44
47080;BME280;33067;49.296;14.470;2023-03-01T05:23:56;97855.84;;;-1.09;42.66
47080;BME280;33067;49.296;14.470;2023-03-01T05:26:21;97856.28;;;-1.33;43.14
47080;BME280;33067;49.296;14.470;2023-03-01T05:28:47;97856.98;;;-0.65;41.65
47080;BME280;33067;49.296;14.470;2023-03-01T05:31:13;97860.91;;;-0.77;42.11
47080;BME280;33067;49.296;14.470;2023-03-01T05:33:39;97855.46;;;-0.70;42.19
47080;BME280;33067;49.296;14.470;2023-03-01T05:36:05;97855.47;;;-0.98;41.96
47080;BME280;33067;49.296;14.470;2023-03-01T05:38:29;97856.44;;;-1.18;42.58
47080;BME280;33067;49.296;14.470;2023-03-01T05:40:55;97856.28;;;-0.62;42.15
47080;BME280;33067;49.296;14.470;2023-03-01T05:43:20;97853.64;;;-1.15;42.66
47080;BME280;33067;49.296;14.470;2023-03-01T05:45:45;97852.62;;;-0.85;42.72
47080;BME280;33067;49.296;14.470;2023-03-01T05:48:11;97848.10;;;-0.95;42.36
47080;BME280;33067;49.296;14.470;2023-03-01T05:50:39;97847.69;;;-1.08;42.52
47080;BME280;33067;49.296;14.470;2023-03-01T05:53:04;97849.85;;;-0.36;42.29
47080;BME280;33067;49.296;14.470;2023-03-01T05:55:28;97852.25;;;-0.45;41.79
47080;BME280;33067;49.296;14.470;2023-03-01T05:57:53;97854.47;;;-0.54;41.56
47080;BME280;33067;49.296;14.470;2023-03-01T06:00:20;97855.88;;;-0.03;41.38
47080;BME280;33067;49.296;14.470;2023-03-01T06:02:44;97853.11;;;-0.03;41.55
47080;BME280;33067;49.296;14.470;2023-03-01T06:05:13;97849.01;;;0.05;41.20
47080;BME280;33067;49.296;14.470;2023-03-01T06:07:35;97850.35;;;0.29;40.97
47080;BME280;33067;49.296;14.470;2023-03-01T06:10:00;97852.62;;;-0.13;41.54
47080;BME280;33067;49.296;14.470;2023-03-01T06:12:26;97854.85;;;-0.16;41.67
47080;BME280;33067;49.296;14.470;2023-03-01T06:14:51;97853.37;;;0.44;40.92
47080;BME280;33067;49.296;14.470;2023-03-01T06:17:16;97856.26;;;0.73;40.89
47080;BME280;33067;49.296;14.470;2023-03-01T06:19:42;97857.62;;;0.48;40.83
47080;BME280;33067;49.296;14.470;2023-03-01T06:22:07;97861.04;;;0.40;40.75
47080;BME280;33067;49.296;14.470;2023-03-01T06:24:34;97860.92;;;0.57;40.91
47080;BME280;33067;49.296;14.470;2023-03-01T06:26:59;97860.01;;;-0.22;40.66
47080;BME280;33067;49.296;14.470;2023-03-01T06:29:24;97859.08;;;1.19;40.18
47080;BME280;33067;49.296;14.470;2023-03-01T06:31:49;97854.47;;;1.68;39.68
47080;BME280;33067;49.296;14.470;2023-03-01T06:34:15;97854.28;;;1.88;39.48
47080;BME280;33067;49.296;14.470;2023-03-01T06:36:40;97849.63;;;2.43;38.53
47080;BME280;33067;49.296;14.470;2023-03-01T06:39:06;97845.92;;;2.34;38.03
47080;BME280;33067;49.296;14.470;2023-03-01T06:41:31;97844.64;;;1.83;38.32
47080;BME280;33067;49.296;14.470;2023-03-01T06:43:57;97843.39;;;2.08;38.40
47080;BME280;33067;49.296;14.470;2023-03-01T06:46:22;97842.75;;;2.17;38.15
47080;BME280;33067;49.296;14.470;2023-03-01T06:48:48;97842.88;;;2.52;37.57
47080;BME280;33067;49.296;14.470;2023-03-01T06:51:13;97847.02;;;2.71;37.47
47080;BME280;33067;49.296;14.470;2023-03-01T06:53:38;97849.54;;;2.53;37.00
47080;BME280;33067;49.296;14.470;2023-03-01T06:56:04;97850.44;;;2.55;36.85
47080;BME280;33067;49.296;14.470;2023-03-01T06:58:29;97850.16;;;2.62;37.00
47080;BME280;33067;49.296;14.470;2023-03-01T07:00:55;97848.28;;;2.97;36.70
47080;BME280;33067;49.296;14.470;2023-03-01T07:03:21;97836.68;;;3.24;36.13
47080;BME280;33067;49.296;14.470;2023-03-01T07:05:48;97839.00;;;2.70;36.23
47080;BME280;33067;49.296;14.470;2023-03-01T07:08:11;97839.21;;;2.59;36.52
47080;BME280;33067;49.296;14.470;2023-03-01T07:10:37;97836.29;;;3.36;36.48
47080;BME280;33067;49.296;14.470;2023-03-01T07:13:03;97841.70;;;3.33;36.66
47080;BME280;33067;49.296;14.470;2023-03-01T07:15:28;97842.00;;;3.75;36.05
47080;BME280;33067;49.296;14.470;2023-03-01T07:17:54;97843.57;;;3.95;35.89
47080;BME280;33067;49.296;14.470;2023-03-01T07:20:19;97845.71;;;4.23;35.60
47080;BME280;33067;49.296;14.470;2023-03-01T07:22:45;97838.79;;;4.75;34.77
47080;BME280;33067;49.296;14.470;2023-03-01T07:25:10;97835.34;;;4.41;35.34
47080;BME280;33067;49.296;14.470;2023-03-01T07:27:35;97826.51;;;3.64;35.74
47080;BME280;33067;49.296;14.470;2023-03-01T07:30:01;97824.14;;;4.05;35.10
47080;BME280;33067;49.296;14.470;2023-03-01T07:32:27;97827.54;;;4.42;34.94
47080;BME280;33067;49.296;14.470;2023-03-01T07:34:52;97827.66;;;3.66;34.96
47080;BME280;33067;49.296;14.470;2023-03-01T07:37:17;97827.31;;;4.03;35.52
47080;BME280;33067;49.296;14.470;2023-03-01T07:39:43;97819.32;;;4.23;35.08
47080;BME280;33067;49.296;14.470;2023-03-01T07:42:09;97817.17;;;4.58;34.32
47080;BME280;33067;49.296;14.470;2023-03-01T07:44:34;97811.52;;;5.39;33.59
47080;BME280;33067;49.296;14.470;2023-03-01T07:47:00;97810.05;;;4.96;33.81
47080;BME280;33067;49.296;14.470;2023-03-01T07:49:26;97810.10;;;4.75;33.81
47080;BME280;33067;49.296;14.470;2023-03-01T07:51:51;97804.01;;;5.19;33.61
47080;BME280;33067;49.296;14.470;2023-03-01T07:54:16;97800.70;;;5.09;33.48
47080;BME280;33067;49.296;14.470;2023-03-01T07:56:42;97802.70;;;5.25;32.86
47080;BME280;33067;49.296;14.470;2023-03-01T07:59:07;97800.65;;;4.98;33.72
47080;BME280;33067;49.296;14.470;2023-03-01T08:01:33;97802.24;;;4.80;33.97
47080;BME280;33067;49.296;14.470;2023-03-01T08:03:58;97802.97;;;5.23;33.38
47080;BME280;33067;49.296;14.470;2023-03-01T08:06:24;97802.64;;;5.38;33.09
47080;BME280;33067;49.296;14.470;2023-03-01T08:08:50;97801.76;;;5.25;33.04
47080;BME280;33067;49.296;14.470;2023-03-01T08:11:16;97803.87;;;5.42;32.68
47080;BME280;33067;49.296;14.470;2023-03-01T08:13:41;97802.93;;;5.94;31.61
47080;BME280;33067;49.296;14.470;2023-03-01T08:16:09;97804.59;;;5.61;31.95
47080;BME280;33067;49.296;14.470;2023-03-01T08:18:32;97802.29;;;5.31;32.44
47080;BME280;33067;49.296;14.470;2023-03-01T08:21:02;97804.12;;;5.81;30.88
47080;BME280;33067;49.296;14.470;2023-03-01T08:23:24;97803.06;;;5.90;31.58
47080;BME280;33067;49.296;14.470;2023-03-01T08:25:49;97805.52;;;6.53;30.65
47080;BME280;33067;49.296;14.470;2023-03-01T08:28:15;97805.05;;;6.27;31.14
47080;BME280;33067;49.296;14.470;2023-03-01T08:30:40;97802.70;;;6.08;31.06
47080;BME280;33067;49.296;14.470;2023-03-01T08:33:05;97804.15;;;6.43;31.03
47080;BME280;33067;49.296;14.470;2023-03-01T08:35:31;97803.20;;;6.53;30.39
47080;BME280;33067;49.296;14.470;2023-03-01T08:37:56;97797.79;;;6.46;30.42
47080;BME280;33067;49.296;14.470;2023-03-01T08:40:22;97797.75;;;5.91;30.84
47080;BME280;33067;49.296;14.470;2023-03-01T08:42:48;97795.55;;;5.88;31.31
47080;BME280;33067;49.296;14.470;2023-03-01T08:45:13;97801.08;;;6.37;30.16
47080;BME280;33067;49.296;14.470;2023-03-01T08:47:38;97802.23;;;5.82;30.76
47080;BME280;33067;49.296;14.470;2023-03-01T08:50:05;97801.90;;;6.14;30.70
47080;BME280;33067;49.296;14.470;2023-03-01T08:52:29;97802.82;;;6.32;30.65
47080;BME280;33067;49.296;14.470;2023-03-01T08:54:55;97801.24;;;6.76;29.67
47080;BME280;33067;49.296;14.470;2023-03-01T08:57:21;97797.55;;;5.48;30.73
47080;BME280;33067;49.296;14.470;2023-03-01T08:59:46;97795.26;;;6.23;30.01
47080;BME280;33067;49.296;14.470;2023-03-01T09:02:13;97790.12;;;5.48;30.71
47080;BME280;33067;49.296;14.470;2023-03-01T09:04:37;97788.49;;;5.91;31.09
47080;BME280;33067;49.296;14.470;2023-03-01T09:07:03;97789.64;;;6.21;30.40
47080;BME280;33067;49.296;14.470;2023-03-01T09:09:29;97790.65;;;5.90;31.51
47080;BME280;33067;49.296;14.470;2023-03-01T09:11:54;97787.77;;;6.41;31.16
47080;BME280;33067;49.296;14.470;2023-03-01T09:14:19;97782.66;;;6.27;30.69
47080;BME280;33067;49.296;14.470;2023-03-01T09:16:45;97779.96;;;6.24;31.15
47080;BME280;33067;49.296;14.470;2023-03-01T09:19:10;97783.16;;;6.41;30.71
47080;BME280;33067;49.296;14.470;2023-03-01T09:21:35;97781.28;;;5.81;30.56
47080;BME280;33067;49.296;14.470;2023-03-01T09:24:00;97780.92;;;5.33;31.38
47080;BME280;33067;49.296;14.470;2023-03-01T09:26:26;97770.80;;;6.27;30.64
47080;BME280;33067;49.296;14.470;2023-03-01T09:28:53;97774.66;;;6.56;30.59
47080;BME280;33067;49.296;14.470;2023-03-01T09:31:19;97769.70;;;7.20;30.05
47080;BME280;33067;49.296;14.470;2023-03-01T09:33:45;97768.69;;;6.56;29.08
47080;BME280;33067;49.296;14.470;2023-03-01T09:36:11;97766.29;;;6.54;29.87
47080;BME280;33067;49.296;14.470;2023-03-01T09:38:33;97758.17;;;6.42;31.17
47080;BME280;33067;49.296;14.470;2023-03-01T09:41:00;97748.87;;;6.32;30.04
47080;BME280;33067;49.296;14.470;2023-03-01T09:43:30;97747.38;;;6.20;30.82
47080;BME280;33067;49.296;14.470;2023-03-01T09:45:50;97755.14;;;5.28;31.28
47080;BME280;33067;49.296;14.470;2023-03-01T09:48:17;97757.50;;;5.67;31.77
47080;BME280;33067;49.296;14.470;2023-03-01T09:50:41;97756.26;;;5.44;31.29
47080;BME280;33067;49.296;14.470;2023-03-01T09:53:08;97751.15;;;5.49;31.64
47080;BME280;33067;49.296;14.470;2023-03-01T09:55:37;97748.78;;;5.17;31.82
47080;BME280;33067;49.296;14.470;2023-03-01T09:58:01;97746.32;;;4.72;32.88
47080;BME280;33067;49.296;14.470;2023-03-01T10:00:29;97744.75;;;5.15;32.23
47080;BME280;33067;49.296;14.470;2023-03-01T10:02:51;97756.52;;;4.58;32.68
47080;BME280;33067;49.296;14.470;2023-03-01T10:05:25;97742.45;;;4.42;33.16
47080;BME280;33067;49.296;14.470;2023-03-01T10:07:44;97748.40;;;3.92;33.99
47080;BME280;33067;49.296;14.470;2023-03-01T10:10:06;97742.26;;;4.34;33.76
47080;BME280;33067;49.296;14.470;2023-03-01T10:12:34;97745.40;;;4.36;33.35
47080;BME280;33067;49.296;14.470;2023-03-01T10:14:59;97756.75;;;3.82;33.97
47080;BME280;33067;49.296;14.470;2023-03-01T10:17:26;97742.54;;;4.86;33.28
47080;BME280;33067;49.296;14.470;2023-03-01T10:19:47;97734.46;;;5.23;32.93
47080;BME280;33067;49.296;14.470;2023-03-01T10:22:15;97733.92;;;4.25;33.22
47080;BME280;33067;49.296;14.470;2023-03-01T10:24:37;97723.45;;;5.04;33.15
47080;BME280;33067;49.296;14.470;2023-03-01T10:27:07;97727.08;;;4.98;32.89
47080;BME280;33067;49.296;14.470;2023-03-01T10:29:34;97712.87;;;4.37;34.06
47080;BME280;33067;49.296;14.470;2023-03-01T10:31:54;97715.94;;;4.54;33.52
47080;BME280;33067;49.296;14.470;2023-03-01T10:34:22;97705.07;;;4.95;33.87
47080;BME280;33067;49.296;14.470;2023-03-01T10:36:48;97703.71;;;5.55;32.70
47080;BME280;33067;49.296;14.470;2023-03-01T10:39:14;97702.33;;;5.48;32.66
47080;BME280;33067;49.296;14.470;2023-03-01T10:41:49;97692.41;;;5.73;32.87
47080;BME280;33067;49.296;14.470;2023-03-01T10:44:02;97686.95;;;5.70;32.56
47080;BME280;33067;49.296;14.470;2023-03-01T10:46:28;97680.97;;;6.68;31.28
47080;BME280;33067;49.296;14.470;2023-03-01T10:51:18;97684.47;;;5.90;31.50
47080;BME280;33067;49.296;14.470;2023-03-01T10:53:47;97669.44;;;5.79;31.90
47080;BME280;33067;49.296;14.470;2023-03-01T10:56:09;97665.56;;;6.72;31.93
47080;BME280;33067;49.296;14.470;2023-03-01T10:58:34;97662.21;;;6.85;31.09
47080;BME280;33067;49.296;14.470;2023-03-01T11:01:00;97657.16;;;6.69;30.62
47080;BME280;33067;49.296;14.470;2023-03-01T11:03:25;97663.73;;;5.98;31.14
47080;BME280;33067;49.296;14.470;2023-03-01T11:05:54;97656.28;;;5.72;32.16
47080;BME280;33067;49.296;14.470;2023-03-01T11:08:30;97652.31;;;6.39;31.27
47080;BME280;33067;49.296;14.470;2023-03-01T11:10:41;97654.23;;;6.49;31.61
47080;BME280;33067;49.296;14.470;2023-03-01T11:13:08;97646.67;;;6.80;31.56
47080;BME280;33067;49.296;14.470;2023-03-01T11:15:32;97635.71;;;5.77;32.39
47080;BME280;33067;49.296;14.470;2023-03-01T11:17:58;97638.86;;;5.80;32.19
47080;BME280;33067;49.296;14.470;2023-03-01T11:20:27;97627.83;;;5.51;33.01
47080;BME280;33067;49.296;14.470;2023-03-01T11:22:53;97618.68;;;6.44;32.11
47080;BME280;33067;49.296;14.470;2023-03-01T11:25:14;97614.43;;;6.58;31.81
47080;BME280;33067;49.296;14.470;2023-03-01T11:27:43;97627.79;;;5.62;32.90
47080;BME280;33067;49.296;14.470;2023-03-01T11:30:07;97627.10;;;5.51;33.47
47080;BME280;33067;49.296;14.470;2023-03-01T11:32:35;97618.01;;;5.67;33.25
47080;BME280;33067;49.296;14.470;2023-03-01T11:34:59;97613.44;;;5.70;33.21
47080;BME280;33067;49.296;14.470;2023-03-01T11:37:28;97615.45;;;6.13;33.44
47080;BME280;33067;49.296;14.470;2023-03-01T11:39:52;97625.03;;;5.36;34.14
47080;BME280;33067;49.296;14.470;2023-03-01T11:42:15;97619.49;;;5.80;33.80
47080;BME280;33067;49.296;14.470;2023-03-01T11:44:38;97614.08;;;6.02;33.68
47080;BME280;33067;49.296;14.470;2023-03-01T11:47:14;97613.09;;;5.81;34.07
47080;BME280;33067;49.296;14.470;2023-03-01T11:49:47;97625.34;;;5.11;34.78
47080;BME280;33067;49.296;14.470;2023-03-01T11:51:57;97604.65;;;6.18;34.75
47080;BME280;33067;49.296;14.470;2023-03-01T11:54:28;97603.76;;;5.81;35.27
47080;BME280;33067;49.296;14.470;2023-03-01T11:56:47;97591.95;;;5.93;35.60
47080;BME280;33067;49.296;14.470;2023-03-01T11:59:23;97600.85;;;5.72;35.51
47080;BME280;33067;49.296;14.470;2023-03-01T12:01:44;97602.31;;;5.89;35.49
47080;BME280;33067;49.296;14.470;2023-03-01T12:04:28;97598.04;;;5.46;35.94
47080;BME280;33067;49.296;14.470;2023-03-01T12:06:35;97587.11;;;6.14;35.11
47080;BME280;33067;49.296;14.470;2023-03-01T12:09:02;97584.18;;;6.20;35.01
47080;BME280;33067;49.296;14.470;2023-03-01T12:11:27;97580.02;;;5.84;35.26
47080;BME280;33067;49.296;14.470;2023-03-01T12:13:55;97568.79;;;6.38;34.91
47080;BME280;33067;49.296;14.470;2023-03-01T12:16:20;97584.38;;;5.41;35.88
47080;BME280;33067;49.296;14.470;2023-03-01T12:18:50;97569.01;;;6.60;34.61
47080;BME280;33067;49.296;14.470;2023-03-01T12:21:09;97567.32;;;6.21;34.97
47080;BME280;33067;49.296;14.470;2023-03-01T12:23:40;97558.82;;;7.39;34.92
47080;BME280;33067;49.296;14.470;2023-03-01T12:25:55;97552.41;;;6.94;35.15
47080;BME280;33067;49.296;14.470;2023-03-01T12:28:31;97562.44;;;5.74;36.69
47080;BME280;33067;49.296;14.470;2023-03-01T12:30:56;97557.79;;;5.34;38.36
47080;BME280;33067;49.296;14.470;2023-03-01T12:33:16;97566.30;;;4.98;38.51
47080;BME280;33067;49.296;14.470;2023-03-01T12:35:52;97564.03;;;5.16;39.27
47080;BME280;33067;49.296;14.470;2023-03-01T12:38:06;97558.03;;;5.85;37.58
47080;BME280;33067;49.296;14.470;2023-03-01T12:40:36;97579.01;;;5.37;39.07
47080;BME280;33067;49.296;14.470;2023-03-01T12:42:56;97565.89;;;5.07;38.80
47080;BME280;33067;49.296;14.470;2023-03-01T12:45:28;97570.88;;;5.42;38.69
47080;BME280;33067;49.296;14.470;2023-03-01T12:47:54;97570.34;;;5.11;38.72
47080;BME280;33067;49.296;14.470;2023-03-01T12:50:11;97560.72;;;5.29;38.01
47080;BME280;33067;49.296;14.470;2023-03-01T12:52:36;97548.72;;;5.74;37.32
47080;BME280;33067;49.296;14.470;2023-03-01T12:54:56;97543.43;;;6.18;36.44